• Join FlightAware (Why Join?)
  • Login
  • US Flag 
04:42AM EDT


 

Airport Tracker/Info


-or-


 

Live Flight TrackerFlight Track Log ✈ SKW6460 ✈ 29-Apr-2012 ✈ KDEN - KPHX

Flight Track Log - Related Links

Times and Time Zones

All times are in EDT time to prevent confusion due to time zone crossing. See the SKW6460 flight status page for this flight to view local times or setup timezone preferences in your user account.

Time Position Orientation Groundspeed Altitude Reporting Facility
EDT Latitude Longitude Course Direction KTS MPH feet Rate Location/Type
11:22AM 39.8435 -104.6966 225° Southwest  Level Estimated
11:23AM 39.7707 -104.7904 225° Southwest  Level Estimated
11:24AM 39.6978 -104.8839 225° Southwest  Level Estimated
11:25AM 39.6249 -104.9773 225° Southwest  Level Estimated
11:26AM 39.5519 -105.0704 224° Southwest  Level Estimated
11:27AM 39.4788 -105.1634 224° Southwest  Level Estimated
11:28AM 39.4056 -105.2562 224° Southwest  Level Estimated
11:29AM 39.3324 -105.3487 224° Southwest  Level Estimated
11:30AM 39.2591 -105.4411 224° Southwest  Level Estimated
11:31AM 39.1857 -105.5333 224° Southwest  Level Estimated
11:32AM 39.1123 -105.6253 224° Southwest  Level Estimated
11:33AM 39.0387 -105.7171 224° Southwest  Level Estimated
11:34AM 38.9651 -105.8087 224° Southwest  Level Estimated
11:35AM 38.8915 -105.9001 224° Southwest  Level Estimated
11:36AM 38.8177 -105.9913 224° Southwest  Level Estimated
11:37AM 38.7439 -106.0824 224° Southwest  Level Estimated
11:38AM 38.6700 -106.1732 224° Southwest  Level Estimated
11:39AM 38.5961 -106.2639 224° Southwest  Level Estimated
11:40AM 38.5221 -106.3544 224° Southwest  Level Estimated
11:41AM 38.4480 -106.4447 224° Southwest  Level Estimated
11:42AM 38.3738 -106.5348 224° Southwest  Level Estimated
11:43AM 38.2996 -106.6247 224° Southwest  Level Estimated
11:44AM 38.2253 -106.7144 223° Southwest  Level Estimated
11:45AM 38.1509 -106.8040 223° Southwest  Level Estimated
11:46AM 38.0765 -106.8934 223° Southwest  Level Estimated
11:47AM 38.0020 -106.9826 223° Southwest  Level Estimated
11:48AM 37.9274 -107.0716 223° Southwest  Level Estimated
11:49AM 37.8528 -107.1604 223° Southwest  Level Estimated
11:50AM 37.7781 -107.2490 223° Southwest  Level Estimated
11:51AM 37.7033 -107.3375 223° Southwest  Level Estimated
11:52AM 37.6285 -107.4258 223° Southwest  Level Estimated
11:53AM 37.5536 -107.5139 223° Southwest  Level Estimated
11:54AM 37.4786 -107.6019 223° Southwest  Level Estimated
11:55AM 37.4036 -107.6896 223° Southwest  Level Estimated
11:56AM 37.3285 -107.7772 223° Southwest  Level Estimated
11:57AM 37.2533 -107.8646 223° Southwest  Level Estimated
11:58AM 37.1781 -107.9519 223° Southwest  Level Estimated
11:59AM 37.1029 -108.0389 223° Southwest  Level Estimated
12:00PM 37.0275 -108.1258 223° Southwest  Level Estimated
12:01PM 36.9521 -108.2125 223° Southwest  Level Estimated
12:02PM 36.8766 -108.2991 222° Southwest  Level Estimated
12:03PM 36.8011 -108.3854 222° Southwest  Level Estimated
12:04PM 36.7255 -108.4716 222° Southwest  Level Estimated
12:05PM 36.6498 -108.5577 222° Southwest  Level Estimated
12:06PM 36.5741 -108.6435 222° Southwest  Level Estimated
12:07PM 36.4983 -108.7292 222° Southwest  Level Estimated
12:08PM 36.4225 -108.8148 222° Southwest  Level Estimated
12:09PM 36.3465 -108.9001 222° Southwest  Level Estimated
12:10PM 36.2706 -108.9853 222° Southwest  Level Estimated
12:11PM 36.1945 -109.0704 222° Southwest  Level Estimated
12:12PM 36.1185 -109.1552 222° Southwest  Level Estimated
12:13PM 36.0423 -109.2399 222° Southwest  Level Estimated
12:14PM 35.9661 -109.3245 222° Southwest  Level Estimated
12:15PM 35.8898 -109.4088 222° Southwest  Level Estimated
12:16PM 35.8135 -109.4930 222° Southwest  Level Estimated
12:17PM 35.7371 -109.5771 222° Southwest  Level Estimated
12:18PM 35.6607 -109.6610 222° Southwest  Level Estimated
12:19PM 35.5842 -109.7447 222° Southwest  Level Estimated
12:20PM 35.5076 -109.8283 222° Southwest  Level Estimated
12:21PM 35.4310 -109.9117 222° Southwest  Level Estimated
12:22PM 35.3543 -109.9949 221° Southwest  Level Estimated
12:23PM 35.2776 -110.0780 221° Southwest  Level Estimated
12:24PM 35.2008 -110.1610 221° Southwest  Level Estimated
12:25PM 35.1240 -110.2438 221° Southwest  Level Estimated
12:26PM 35.0471 -110.3264 221° Southwest  Level Estimated
12:27PM 34.9701 -110.4088 221° Southwest  Level Estimated
12:28PM 34.8931 -110.4911 221° Southwest  Level Estimated
12:29PM 34.8160 -110.5733 221° Southwest  Level Estimated
12:30PM 34.7389 -110.6553 221° Southwest  Level Estimated
12:31PM 34.6617 -110.7372 221° Southwest  Level Estimated
12:32PM 34.5845 -110.8189 221° Southwest  Level Estimated
12:33PM 34.5072 -110.9004 221° Southwest  Level Estimated
12:34PM 34.4299 -110.9818 221° Southwest  Level Estimated
12:35PM 34.3525 -111.0631 221° Southwest  Level Estimated
12:36PM 34.2750 -111.1441 221° Southwest  Level Estimated
12:37PM 34.1975 -111.2251 221° Southwest  Level Estimated
12:38PM 34.1200 -111.3059 221° Southwest  Level Estimated
12:39PM 34.0424 -111.3865 221° Southwest  Level Estimated
12:40PM 33.9647 -111.4670 221° Southwest  Level Estimated
12:41PM 33.8870 -111.5474 221° Southwest  Level Estimated
12:42PM 33.8092 -111.6276 221° Southwest  Level Estimated
12:43PM 33.7314 -111.7077 221° Southwest  Level Estimated
12:44PM 33.6535 -111.7876 220° Southwest  Level Estimated
12:45PM 33.5756 -111.8674 220° Southwest  Level Estimated
12:46PM 33.4977 -111.9470 220° Southwest  Level Estimated
12:47PM 33.4196 -112.0265 40° Northeast  Level Estimated
12:48PM 33.4977 -111.9470 220° Southwest  Level Estimated
12:49PM 33.4196 -112.0265 40° Northeast  Level Estimated
12:50PM 33.4977 -111.9470 40° Northeast  Level Estimated